Time;durP1;ratioP1;P1;durP2;ratioP2;P2;SDS_P1;SDS_P2;PMS_P1;PMS_P2;Temp;Humidity;BMP_temperature;BMP_pressure;BME280_temperature;BME280_humidity;BME280_pressure;Samples;Min_cycle;Max_cycle;Signal;HPM_P1;HPM_P2
2023/10/16 00:00:45;;;;;;;6.82;2.30;;;8.40;99.90;;;;;;5034115;28;20250;-62
2023/10/16 00:03:15;;;;;;;5.28;2.00;;;8.40;99.90;;;;;;5033901;28;20254;-62
2023/10/16 00:05:45;;;;;;;7.82;2.30;;;8.40;99.90;;;;;;5033652;28;20191;-60
2023/10/16 00:08:16;;;;;;;6.40;2.00;;;8.40;99.90;;;;;;5033798;28;20172;-61
2023/10/16 00:10:55;;;;;;;6.65;1.88;;;8.40;99.90;;;;;;5034063;28;20692;-62
2023/10/16 00:13:26;;;;;;;7.43;2.00;;;8.40;99.90;;;;;;5033574;28;20168;-63
2023/10/16 00:15:57;;;;;;;5.47;1.90;;;8.40;99.90;;;;;;5034025;28;20586;-62
2023/10/16 00:18:23;;;;;;;6.03;2.42;;;8.40;99.90;;;;;;5016064;28;20168;-62
2023/10/16 00:20:51;;;;;;;4.95;1.98;;;8.40;99.90;;;;;;5034102;28;20572;-62
2023/10/16 00:23:18;;;;;;;7.10;2.05;;;8.40;99.90;;;;;;5033991;28;20215;-62
2023/10/16 00:25:44;;;;;;;8.52;2.15;;;8.30;99.90;;;;;;5033605;28;20610;-61
2023/10/16 00:28:11;;;;;;;7.93;1.75;;;8.30;99.90;;;;;;5033154;28;20184;-62
2023/10/16 00:30:38;;;;;;;4.32;1.90;;;8.30;99.90;;;;;;5033241;28;20172;-62
2023/10/16 00:33:13;;;;;;;7.90;2.13;;;8.30;99.90;;;;;;4999217;28;20196;-62
2023/10/16 00:35:48;;;;;;;7.18;1.90;;;8.30;99.90;;;;;;4999660;28;20180;-61
2023/10/16 00:38:14;;;;;;;6.15;1.88;;;8.30;99.90;;;;;;5033489;28;20198;-61
2023/10/16 00:40:51;;;;;;;5.28;1.50;;;8.30;99.90;;;;;;5033362;28;20191;-61
2023/10/16 00:43:20;;;;;;;8.00;2.00;;;8.30;99.90;;;;;;5015288;28;20258;-61
2023/10/16 00:45:59;;;;;;;4.75;1.60;;;8.30;99.90;;;;;;5032156;28;20183;-62
2023/10/16 00:48:26;;;;;;;5.90;1.52;;;8.30;99.90;;;;;;5032825;28;20187;-61
2023/10/16 00:50:52;;;;;;;6.07;1.70;;;8.30;99.90;;;;;;4998294;28;20297;-60
2023/10/16 00:53:23;;;;;;;4.63;1.50;;;8.30;99.90;;;;;;5015356;28;20177;-60
2023/10/16 00:55:51;;;;;;;7.13;1.65;;;8.30;99.90;;;;;;5015559;28;20655;-61
2023/10/16 00:58:17;;;;;;;5.20;1.98;;;8.30;99.90;;;;;;5015535;28;20238;-61
2023/10/16 01:00:46;;;;;;;8.60;1.83;;;8.30;99.90;;;;;;5032494;28;20187;-61
2023/10/16 01:03:14;;;;;;;7.05;1.95;;;8.30;99.90;;;;;;5015472;28;20226;-60
2023/10/16 01:05:42;;;;;;;6.75;1.80;;;8.30;99.90;;;;;;5032655;28;20180;-61
2023/10/16 01:08:11;;;;;;;5.30;2.00;;;8.40;99.90;;;;;;5015269;28;20176;-61
2023/10/16 01:10:41;;;;;;;8.63;1.80;;;8.40;99.90;;;;;;5032889;28;20211;-63
2023/10/16 01:13:13;;;;;;;4.97;2.00;;;8.40;99.90;;;;;;5015263;28;20643;-62
2023/10/16 01:15:46;;;;;;;5.93;1.70;;;8.40;99.90;;;;;;5033119;28;20226;-61
2023/10/16 01:18:15;;;;;;;10.23;1.70;;;8.40;99.90;;;;;;5014859;28;20196;-61
2023/10/16 01:20:47;;;;;;;4.93;2.05;;;8.50;99.90;;;;;;5015244;28;20196;-61
2023/10/16 01:23:22;;;;;;;5.70;1.80;;;8.40;99.90;;;;;;5032886;28;20701;-61
2023/10/16 01:25:49;;;;;;;6.28;2.03;;;8.40;99.90;;;;;;5015076;28;20171;-61
2023/10/16 01:28:19;;;;;;;3.80;1.58;;;8.40;99.90;;;;;;5014856;28;20261;-60
2023/10/16 01:30:47;;;;;;;7.38;1.40;;;8.50;99.90;;;;;;5032977;28;20601;-63
2023/10/16 01:33:16;;;;;;;5.30;1.60;;;8.50;99.90;;;;;;5015174;28;20550;-62
2023/10/16 01:35:47;;;;;;;4.65;1.50;;;8.50;99.90;;;;;;5033165;28;20180;-62
2023/10/16 01:38:17;;;;;;;5.53;1.80;;;8.50;99.90;;;;;;5032424;28;20187;-60
2023/10/16 01:41:08;;;;;;;5.32;1.70;;;8.50;99.90;;;;;;5032661;28;20180;-63
2023/10/16 01:43:36;;;;;;;8.88;2.03;;;8.40;99.90;;;;;;5015552;28;20204;-62
2023/10/16 01:46:08;;;;;;;4.82;1.70;;;8.40;99.90;;;;;;5032393;28;20176;-61
2023/10/16 01:48:42;;;;;;;4.97;1.95;;;8.40;99.90;;;;;;5033115;28;20184;-61
2023/10/16 01:51:10;;;;;;;4.55;2.10;;;8.30;99.90;;;;;;5032985;28;20228;-61
2023/10/16 01:53:40;;;;;;;4.47;1.90;;;8.30;99.90;;;;;;5032423;28;20213;-61
2023/10/16 01:56:17;;;;;;;7.28;2.10;;;8.20;99.90;;;;;;5032788;28;20180;-61
2023/10/16 01:58:47;;;;;;;5.65;1.70;;;8.20;99.90;;;;;;5034959;28;20164;-61
2023/10/16 02:01:16;;;;;;;6.88;2.05;;;8.20;99.90;;;;;;5018098;28;20180;-62
2023/10/16 02:03:44;;;;;;;8.23;1.92;;;8.20;99.90;;;;;;5017944;28;20679;-62
2023/10/16 02:06:18;;;;;;;6.35;2.10;;;8.20;99.90;;;;;;5002264;28;20184;-62
2023/10/16 02:08:47;;;;;;;6.47;2.13;;;8.20;99.90;;;;;;5018459;28;20212;-61
2023/10/16 02:11:13;;;;;;;5.55;2.00;;;8.20;99.90;;;;;;5035602;28;20202;-62
2023/10/16 02:13:40;;;;;;;10.20;1.85;;;8.20;99.90;;;;;;5017891;28;20638;-61
2023/10/16 02:16:10;;;;;;;6.28;2.25;;;8.20;99.90;;;;;;5018338;28;20176;-61
2023/10/16 02:18:45;;;;;;;6.43;2.30;;;8.20;99.90;;;;;;5018858;28;20256;-60
2023/10/16 02:21:12;;;;;;;8.95;2.20;;;8.20;99.90;;;;;;5035835;28;20258;-61
2023/10/16 02:23:39;;;;;;;6.43;1.92;;;8.20;99.90;;;;;;5017732;28;20235;-61
2023/10/16 02:26:09;;;;;;;9.40;1.80;;;8.20;99.90;;;;;;5018303;28;20203;-61
2023/10/16 02:28:40;;;;;;;8.40;1.95;;;8.20;99.90;;;;;;5018609;28;20172;-61
2023/10/16 02:31:13;;;;;;;7.80;2.03;;;8.20;99.90;;;;;;5035815;28;20168;-62
2023/10/16 02:33:46;;;;;;;6.15;1.90;;;8.20;99.90;;;;;;5035468;28;20215;-61
2023/10/16 02:36:12;;;;;;;4.63;1.88;;;8.20;99.90;;;;;;5035738;28;20168;-62
2023/10/16 02:38:38;;;;;;;7.53;1.88;;;8.20;99.90;;;;;;5035336;28;20176;-61
2023/10/16 02:41:05;;;;;;;9.77;1.75;;;8.10;99.90;;;;;;5001290;28;20186;-62
2023/10/16 02:43:31;;;;;;;5.97;2.10;;;8.10;99.90;;;;;;5034157;28;20241;-61
2023/10/16 02:46:01;;;;;;;4.13;1.98;;;8.10;99.90;;;;;;5017695;28;20644;-62
2023/10/16 02:48:27;;;;;;;4.47;1.80;;;8.00;99.90;;;;;;5035285;28;20184;-62
2023/10/16 02:50:59;;;;;;;10.30;2.17;;;8.00;99.90;;;;;;5035288;28;20244;-62
2023/10/16 02:53:33;;;;;;;6.90;1.98;;;8.00;99.90;;;;;;5017456;28;20178;-62
2023/10/16 02:58:57;;;;;;;10.60;2.10;;;8.10;99.90;;;;;;5017139;28;20235;-62
2023/10/16 03:01:23;;;;;;;12.77;2.53;;;8.10;99.90;;;;;;5035030;28;20156;-62
2023/10/16 03:03:52;;;;;;;7.82;1.60;;;8.20;99.90;;;;;;5034626;28;20240;-62
2023/10/16 03:06:21;;;;;;;6.22;1.67;;;8.20;99.90;;;;;;5017094;28;20207;-62
2023/10/16 03:08:50;;;;;;;5.93;1.60;;;8.20;99.90;;;;;;5034053;28;20188;-62
2023/10/16 03:11:17;;;;;;;6.70;1.70;;;8.20;99.90;;;;;;5034837;28;20267;-62
2023/10/16 03:13:47;;;;;;;7.97;2.13;;;8.30;99.90;;;;;;5016885;28;20179;-62
2023/10/16 03:16:22;;;;;;;9.60;2.20;;;8.30;99.90;;;;;;5017048;28;20230;-61
2023/10/16 03:18:49;;;;;;;8.20;2.15;;;8.30;99.90;;;;;;5034699;28;20160;-61
2023/10/16 03:23:44;;;;;;;10.82;2.15;;;8.30;99.90;;;;;;5016638;28;20219;-62
2023/10/16 03:26:28;;;;;;;3.80;1.95;;;8.40;99.90;;;;;;5034435;28;20490;-62
2023/10/16 03:29:05;;;;;;;6.38;1.90;;;8.30;99.90;;;;;;5034489;28;20168;-65
2023/10/16 03:31:36;;;;;;;9.43;2.33;;;8.40;99.90;;;;;;5034702;28;20168;-63
2023/10/16 03:34:02;;;;;;;6.32;2.22;;;8.40;99.90;;;;;;5034484;28;20624;-63
2023/10/16 03:36:28;;;;;;;7.78;2.70;;;8.50;99.90;;;;;;5034000;28;20180;-63
2023/10/16 03:38:57;;;;;;;13.20;2.88;;;8.50;99.90;;;;;;5034179;28;20192;-62
2023/10/16 03:41:32;;;;;;;7.00;2.97;;;8.50;99.90;;;;;;5033921;28;20733;-61
2023/10/16 03:44:06;;;;;;;11.30;3.15;;;8.50;99.90;;;;;;5016564;28;20682;-61
2023/10/16 03:46:33;;;;;;;11.60;3.85;;;8.60;99.90;;;;;;5016467;28;20226;-62
2023/10/16 03:49:00;;;;;;;9.45;3.90;;;8.50;99.90;;;;;;5033970;28;20187;-62
2023/10/16 03:51:26;;;;;;;11.95;3.97;;;8.60;99.90;;;;;;4999299;28;20695;-62
2023/10/16 03:53:56;;;;;;;8.43;3.17;;;8.60;99.90;;;;;;5033477;28;20680;-63
2023/10/16 03:56:24;;;;;;;10.18;3.08;;;8.60;99.90;;;;;;5015882;28;20168;-62
2023/10/16 03:58:53;;;;;;;9.95;2.85;;;8.60;99.90;;;;;;5034026;28;20230;-62
2023/10/16 04:01:27;;;;;;;8.93;2.20;;;8.60;99.90;;;;;;5016008;28;20234;-63
2023/10/16 04:03:56;;;;;;;6.20;2.15;;;8.60;99.90;;;;;;5015656;28;20269;-62
2023/10/16 04:06:24;;;;;;;12.75;2.50;;;8.60;99.90;;;;;;5033292;28;20210;-61
2023/10/16 04:08:53;;;;;;;8.93;2.25;;;8.70;99.90;;;;;;5015714;28;20184;-62
2023/10/16 04:11:20;;;;;;;8.48;1.80;;;8.70;99.90;;;;;;5033413;28;20180;-62
2023/10/16 04:13:50;;;;;;;6.07;2.28;;;8.70;99.90;;;;;;5033401;28;20573;-63
2023/10/16 04:18:56;;;;;;;7.82;2.10;;;8.80;99.90;;;;;;5033588;28;20609;-63
2023/10/16 04:21:37;;;;;;;9.02;2.10;;;8.70;99.90;;;;;;5032264;28;20549;-64
2023/10/16 04:24:05;;;;;;;9.02;2.20;;;8.70;99.90;;;;;;5033562;28;20212;-63
2023/10/16 04:26:34;;;;;;;8.95;2.00;;;8.70;99.90;;;;;;5033903;28;20179;-63
2023/10/16 04:31:57;;;;;;;6.38;2.00;;;8.80;99.90;;;;;;5033303;28;20172;-64
2023/10/16 04:48:06;;;;;;;9.05;3.67;;;8.90;99.90;;;;;;5032977;28;20168;-64
2023/10/16 04:53:14;;;;;;;8.32;3.55;;;8.90;99.90;;;;;;5032758;28;20172;-64
2023/10/16 05:06:15;;;;;;;11.43;4.55;;;8.90;99.90;;;;;;5033115;28;20207;-64
2023/10/16 05:11:24;;;;;;;9.65;4.65;;;8.90;99.90;;;;;;5032893;28;20282;-64
2023/10/16 05:22:02;;;;;;;9.18;3.70;;;8.90;99.90;;;;;;5032597;28;20280;-62
2023/10/16 06:14:12;;;;;;;9.60;5.13;;;9.00;99.90;;;;;;5035644;28;20227;-61
2023/10/16 06:16:40;;;;;;;12.38;4.00;;;9.10;99.90;;;;;;5035386;28;20238;-63
2023/10/16 06:19:10;;;;;;;13.50;4.30;;;9.10;99.90;;;;;;5018388;28;20271;-61
2023/10/16 06:21:37;;;;;;;11.88;4.40;;;9.10;99.90;;;;;;5035911;28;20214;-63
2023/10/16 06:24:25;;;;;;;11.00;3.78;;;9.20;99.90;;;;;;5034289;28;20302;-63
2023/10/16 06:26:49;;;;;;;15.23;4.32;;;9.10;99.90;;;;;;5035212;28;20184;-61
2023/10/16 06:29:15;;;;;;;10.70;3.65;;;9.20;99.90;;;;;;5001176;28;20176;-63
2023/10/16 06:31:49;;;;;;;13.80;3.90;;;9.20;99.90;;;;;;5035375;28;20268;-64
2023/10/16 06:34:15;;;;;;;10.57;4.40;;;9.30;99.90;;;;;;5035627;28;20183;-65
2023/10/16 06:36:42;;;;;;;15.35;7.57;;;9.30;99.90;;;;;;5035280;28;20183;-61
2023/10/16 06:39:22;;;;;;;9.68;4.90;;;9.40;99.90;;;;;;5035396;28;20237;-61
2023/10/16 06:41:54;;;;;;;14.60;4.65;;;9.40;99.90;;;;;;5035365;28;20172;-62
2023/10/16 06:44:28;;;;;;;11.30;5.35;;;9.40;99.90;;;;;;5016840;28;20212;-63
2023/10/16 06:46:59;;;;;;;11.93;5.07;;;9.50;99.90;;;;;;5035214;28;20173;-64
2023/10/16 06:49:36;;;;;;;11.68;4.82;;;9.50;99.90;;;;;;5034880;28;20658;-61
2023/10/16 06:52:06;;;;;;;9.15;4.63;;;9.50;99.90;;;;;;5034745;28;20256;-61
2023/10/16 06:54:37;;;;;;;14.13;5.40;;;9.60;99.90;;;;;;5034788;28;20267;-62
2023/10/16 06:57:12;;;;;;;13.32;5.57;;;9.60;99.90;;;;;;5035382;28;20179;-64
2023/10/16 06:59:46;;;;;;;13.48;4.50;;;9.60;99.90;;;;;;5035006;28;20202;-63
2023/10/16 07:02:15;;;;;;;8.60;3.92;;;9.60;99.90;;;;;;5034856;28;20506;-62
2023/10/16 07:04:44;;;;;;;12.18;3.88;;;9.60;99.90;;;;;;5034710;28;20324;-62
2023/10/16 07:07:14;;;;;;;8.43;4.40;;;9.70;99.90;;;;;;5034925;28;20188;-64
2023/10/16 07:09:47;;;;;;;9.48;4.05;;;9.70;99.90;;;;;;5035280;28;20187;-62
2023/10/16 07:12:17;;;;;;;11.70;3.90;;;9.80;99.90;;;;;;5034704;28;20196;-61
2023/10/16 07:14:57;;;;;;;9.68;3.70;;;9.80;99.90;;;;;;5034730;28;20242;-62
2023/10/16 07:17:24;;;;;;;10.25;3.95;;;9.80;99.90;;;;;;5033251;28;20628;-61
2023/10/16 07:19:58;;;;;;;11.98;4.25;;;9.90;99.90;;;;;;5034609;28;20184;-63
2023/10/16 07:22:31;;;;;;;8.38;3.60;;;9.90;99.90;;;;;;5016566;28;20176;-62
2023/10/16 07:27:46;;;;;;;14.50;4.10;;;10.00;99.90;;;;;;5033849;28;20180;-64
2023/10/16 07:30:21;;;;;;;28.48;13.48;;;10.00;99.90;;;;;;5034569;28;20604;-61
2023/10/16 07:32:51;;;;;;;17.77;7.20;;;10.10;99.90;;;;;;5034107;28;20172;-62
2023/10/16 07:35:18;;;;;;;10.30;3.58;;;10.20;99.90;;;;;;5033770;28;20176;-59
2023/10/16 07:37:53;;;;;;;10.15;3.38;;;10.30;99.90;;;;;;5016177;28;20202;-62
2023/10/16 07:40:20;;;;;;;10.00;3.22;;;10.30;99.90;;;;;;5034323;28;20195;-61
2023/10/16 07:42:47;;;;;;;12.15;4.03;;;10.40;99.90;;;;;;5033569;28;20226;-61
2023/10/16 07:45:13;;;;;;;13.68;4.00;;;10.50;99.90;;;;;;5033673;28;20183;-62
2023/10/16 07:47:39;;;;;;;12.38;3.42;;;10.60;99.90;;;;;;5033577;28;20204;-62
2023/10/16 07:50:07;;;;;;;14.70;3.40;;;10.70;99.90;;;;;;5033764;28;20188;-61
2023/10/16 07:52:34;;;;;;;11.00;3.33;;;10.70;99.90;;;;;;5033416;28;20248;-61
2023/10/16 07:55:04;;;;;;;8.30;3.03;;;10.80;99.90;;;;;;5034069;28;20186;-62
2023/10/16 07:57:32;;;;;;;11.77;2.78;;;10.80;99.90;;;;;;5033429;28;20188;-61
2023/10/16 08:00:07;;;;;;;8.32;2.88;;;10.90;99.90;;;;;;5033572;28;20246;-61
2023/10/16 08:02:44;;;;;;;10.40;2.83;;;10.90;99.90;;;;;;5033244;28;20255;-63
2023/10/16 08:05:16;;;;;;;9.55;2.65;;;10.90;99.90;;;;;;5033107;28;20199;-61
2023/10/16 08:07:46;;;;;;;9.38;2.40;;;10.90;99.90;;;;;;5032965;28;20167;-61
2023/10/16 08:10:41;;;;;;;12.18;3.28;;;11.00;99.90;;;;;;5015388;28;20265;-63
2023/10/16 08:13:16;;;;;;;10.02;2.00;;;11.10;99.90;;;;;;4999357;28;20184;-61
2023/10/16 08:15:48;;;;;;;12.73;2.38;;;11.10;99.90;;;;;;5015906;28;20185;-62
2023/10/16 08:18:18;;;;;;;9.75;2.00;;;11.20;99.90;;;;;;5033339;28;20623;-61
2023/10/16 08:20:49;;;;;;;9.07;1.80;;;11.20;99.90;;;;;;5033754;28;20180;-61
2023/10/16 08:23:16;;;;;;;8.77;2.60;;;11.30;99.90;;;;;;5033570;28;20230;-61
2023/10/16 08:25:42;;;;;;;8.27;3.03;;;11.30;99.90;;;;;;5032762;28;20236;-61
2023/10/16 08:28:35;;;;;;;8.32;2.10;;;11.40;99.90;;;;;;5032573;28;20679;-60
2023/10/16 08:33:51;;;;;;;10.85;2.45;;;11.60;99.90;;;;;;5015225;28;20315;-61
2023/10/16 08:36:20;;;;;;;13.13;2.28;;;11.70;99.90;;;;;;5032752;28;20203;-61
2023/10/16 08:38:52;;;;;;;7.80;2.30;;;11.70;99.90;;;;;;5015376;28;20194;-60
2023/10/16 08:41:51;;;;;;;11.82;2.78;;;11.80;99.90;;;;;;5032113;28;20168;-61
2023/10/16 08:44:18;;;;;;;10.50;3.10;;;11.80;99.90;;;;;;5032625;28;20208;-61
2023/10/16 08:46:52;;;;;;;61.67;35.97;;;11.80;99.90;;;;;;5032846;28;20207;-61
2023/10/16 08:49:22;;;;;;;13.27;3.53;;;11.90;99.90;;;;;;5032552;28;20162;-61
2023/10/16 08:57:19;;;;;;;10.27;2.83;;;12.00;99.90;;;;;;5032488;28;20289;-62
2023/10/16 08:59:52;;;;;;;7.57;2.28;;;12.20;99.90;;;;;;5032586;28;20180;-62
2023/10/16 09:02:20;;;;;;;10.50;2.08;;;12.30;99.90;;;;;;5033164;28;20176;-63
2023/10/16 09:04:54;;;;;;;4.93;1.83;;;12.40;99.90;;;;;;5014788;28;20218;-60
2023/10/16 09:07:20;;;;;;;9.73;1.77;;;12.40;99.90;;;;;;5031977;28;20172;-62
2023/10/16 09:09:49;;;;;;;10.55;2.17;;;12.40;99.90;;;;;;5015336;28;20179;-61
2023/10/16 09:12:24;;;;;;;8.80;1.65;;;12.30;99.90;;;;;;5032654;28;20180;-61
2023/10/16 09:14:52;;;;;;;6.78;1.90;;;12.30;99.90;;;;;;5032879;28;20172;-62
2023/10/16 09:17:19;;;;;;;8.50;1.98;;;12.30;99.90;;;;;;5032288;28;20199;-62
2023/10/16 09:19:49;;;;;;;8.25;2.05;;;12.30;99.90;;;;;;4999092;28;20591;-61
2023/10/16 09:22:17;;;;;;;8.63;1.77;;;12.30;99.90;;;;;;5032373;28;20172;-60
2023/10/16 09:24:46;;;;;;;4.22;1.60;;;12.30;99.90;;;;;;5014607;28;20215;-61
2023/10/16 09:27:16;;;;;;;12.00;2.10;;;12.40;99.90;;;;;;5031125;28;20238;-62
2023/10/16 09:29:53;;;;;;;6.07;1.85;;;12.40;99.90;;;;;;5031967;28;20160;-61
2023/10/16 09:32:39;;;;;;;5.60;1.75;;;12.50;99.90;;;;;;5031980;28;20178;-61
2023/10/16 09:35:11;;;;;;;6.93;1.55;;;12.60;99.90;;;;;;5032224;28;20207;-61
2023/10/16 09:37:37;;;;;;;7.78;1.70;;;12.60;99.90;;;;;;5032357;28;20628;-63
2023/10/16 09:40:18;;;;;;;8.15;1.90;;;12.60;99.90;;;;;;5031957;28;20188;-62
2023/10/16 09:43:05;;;;;;;6.13;1.65;;;12.60;99.90;;;;;;4998912;28;20230;-60
2023/10/16 09:45:33;;;;;;;7.55;2.00;;;12.60;99.90;;;;;;5032079;28;20678;-61
2023/10/16 09:48:08;;;;;;;11.15;1.95;;;12.70;99.90;;;;;;5014791;28;20507;-62
2023/10/16 09:50:38;;;;;;;5.82;1.63;;;12.70;99.90;;;;;;5014787;28;20160;-60
2023/10/16 09:53:07;;;;;;;8.15;1.70;;;12.80;99.90;;;;;;5032037;28;20231;-62
2023/10/16 09:55:38;;;;;;;7.32;1.40;;;12.80;99.90;;;;;;5032331;28;20234;-61
2023/10/16 09:58:06;;;;;;;7.05;1.60;;;12.80;99.90;;;;;;5032446;28;20171;-62
2023/10/16 10:00:32;;;;;;;4.13;1.52;;;12.80;99.90;;;;;;5032160;28;20187;-61
2023/10/16 10:03:12;;;;;;;2.30;1.27;;;12.70;99.90;;;;;;5032155;28;20212;-61
2023/10/16 10:06:08;;;;;;;4.47;1.40;;;12.80;99.90;;;;;;5031743;28;20631;-61
2023/10/16 10:09:44;;;;;;;5.53;1.60;;;12.80;99.90;;;;;;5031436;28;20180;-59
2023/10/16 10:11:47;;;;;;;6.97;1.27;;;12.80;99.90;;;;;;5014072;28;20223;-61
2023/10/16 10:14:26;;;;;;;3.80;1.20;;;12.80;99.90;;;;;;5031394;28;20179;-61
2023/10/16 10:17:00;;;;;;;8.30;1.50;;;12.80;99.90;;;;;;5031957;28;20160;-62
2023/10/16 10:19:46;;;;;;;3.85;1.50;;;12.80;99.90;;;;;;5033645;28;20617;-61
2023/10/16 10:22:19;;;;;;;6.78;2.80;;;12.80;99.90;;;;;;5035541;28;20180;-60
2023/10/16 10:24:51;;;;;;;9.38;1.40;;;12.80;99.90;;;;;;5035101;28;20249;-63
2023/10/16 10:27:20;;;;;;;6.75;1.50;;;12.80;99.90;;;;;;5035206;28;20164;-62
2023/10/16 10:29:48;;;;;;;9.10;1.55;;;12.90;99.90;;;;;;5034635;28;20632;-61
2023/10/16 10:32:14;;;;;;;7.45;1.30;;;13.00;99.90;;;;;;5017194;28;20615;-61
2023/10/16 10:34:43;;;;;;;5.10;1.58;;;13.00;99.90;;;;;;5034750;28;20187;-63
2023/10/16 10:37:47;;;;;;;4.95;1.40;;;13.10;99.90;;;;;;5035331;28;20183;-61
2023/10/16 10:40:24;;;;;;;5.82;1.45;;;13.20;99.90;;;;;;5017367;28;20203;-61
2023/10/16 10:42:53;;;;;;;4.43;1.02;;;13.20;99.90;;;;;;5034617;28;20171;-61
2023/10/16 10:45:35;;;;;;;4.47;1.10;;;13.10;99.90;;;;;;5034997;28;20605;-63
2023/10/16 10:48:11;;;;;;;4.03;1.13;;;13.10;99.90;;;;;;5034733;28;20739;-62
2023/10/16 10:50:40;;;;;;;5.07;1.20;;;13.10;99.90;;;;;;5033320;28;20241;-62
2023/10/16 10:53:13;;;;;;;5.97;1.23;;;13.20;99.90;;;;;;5034228;28;20648;-61
2023/10/16 10:55:56;;;;;;;7.30;1.92;;;13.30;99.90;;;;;;5034369;28;20176;-61
2023/10/16 10:58:29;;;;;;;5.20;1.30;;;13.40;99.90;;;;;;5034100;28;20176;-61
2023/10/16 11:03:57;;;;;;;5.25;1.45;;;13.50;99.90;;;;;;5000553;28;20302;-60
2023/10/16 11:06:48;;;;;;;7.50;2.58;;;13.50;99.90;;;;;;5033285;28;20314;-61
2023/10/16 11:09:18;;;;;;;5.30;1.20;;;13.50;99.90;;;;;;5016567;28;20176;-59
2023/10/16 11:11:50;;;;;;;6.57;1.27;;;13.50;99.90;;;;;;5016365;28;20520;-63
2023/10/16 11:14:17;;;;;;;4.78;1.40;;;13.50;99.90;;;;;;5017105;28;20702;-62
2023/10/16 11:16:49;;;;;;;5.55;1.45;;;13.50;99.90;;;;;;5034392;28;20176;-61
2023/10/16 11:19:28;;;;;;;7.47;1.15;;;13.50;99.90;;;;;;5000947;28;20191;-61
2023/10/16 11:22:00;;;;;;;4.22;1.40;;;13.50;99.90;;;;;;5034806;28;20168;-63
2023/10/16 11:24:26;;;;;;;7.30;1.48;;;13.50;99.90;;;;;;5034202;28;20228;-62
2023/10/16 11:26:54;;;;;;;5.50;1.40;;;13.50;99.90;;;;;;5033763;28;20184;-62
2023/10/16 11:29:20;;;;;;;4.10;1.55;;;13.60;99.90;;;;;;5015520;28;20183;-61
2023/10/16 11:31:47;;;;;;;6.40;1.65;;;13.60;99.90;;;;;;5016398;28;20180;-62
2023/10/16 11:34:21;;;;;;;6.15;1.50;;;13.70;99.90;;;;;;5033804;28;20623;-62
2023/10/16 11:36:50;;;;;;;16.50;1.75;;;13.70;99.90;;;;;;5033928;28;20170;-62
2023/10/16 11:39:19;;;;;;;8.23;1.52;;;13.60;99.90;;;;;;5033468;28;20651;-63
2023/10/16 11:41:46;;;;;;;11.80;1.90;;;13.70;99.90;;;;;;5033071;28;20183;-62
2023/10/16 11:44:16;;;;;;;4.28;1.38;;;13.80;99.90;;;;;;5033513;28;20227;-61
2023/10/16 11:46:44;;;;;;;4.18;1.20;;;13.90;99.90;;;;;;5033602;28;20295;-63
2023/10/16 11:51:45;;;;;;;7.68;1.75;;;14.00;99.90;;;;;;5033381;28;20186;-63
2023/10/16 11:54:12;;;;;;;10.40;1.80;;;14.00;99.90;;;;;;5015501;28;20168;-62
2023/10/16 11:56:38;;;;;;;13.32;1.60;;;13.90;99.90;;;;;;5033496;28;20604;-63
2023/10/16 11:59:09;;;;;;;5.53;1.45;;;13.90;99.90;;;;;;5033962;28;20247;-62
2023/10/16 12:01:35;;;;;;;7.18;1.30;;;13.90;99.90;;;;;;5033368;28;20176;-61
2023/10/16 12:04:01;;;;;;;8.32;1.60;;;13.90;99.90;;;;;;5033456;28;20301;-61
2023/10/16 12:06:27;;;;;;;6.45;1.60;;;13.90;99.90;;;;;;5033399;28;20652;-63
2023/10/16 12:08:54;;;;;;;6.35;1.50;;;14.00;99.90;;;;;;5015520;28;20711;-63
2023/10/16 12:11:20;;;;;;;6.32;1.50;;;14.00;99.90;;;;;;5032895;28;20180;-62
2023/10/16 12:13:47;;;;;;;5.95;1.70;;;14.00;99.90;;;;;;5032494;28;20272;-62
2023/10/16 12:16:12;;;;;;;6.53;1.55;;;14.00;99.90;;;;;;5033021;28;20188;-63
2023/10/16 12:18:38;;;;;;;9.02;1.75;;;13.90;99.90;;;;;;5032813;28;20180;-62
2023/10/16 12:21:07;;;;;;;6.88;1.70;;;13.90;99.90;;;;;;5014688;28;20207;-62
2023/10/16 12:23:39;;;;;;;9.27;1.80;;;13.80;99.90;;;;;;5032671;28;20242;-61
2023/10/16 12:26:05;;;;;;;7.40;2.85;;;13.80;99.90;;;;;;5032311;28;20156;-62
2023/10/16 12:28:34;;;;;;;11.52;1.70;;;13.80;99.90;;;;;;5030952;28;20215;-62
2023/10/16 12:31:02;;;;;;;6.25;1.70;;;13.80;99.90;;;;;;5015187;28;20200;-65
2023/10/16 12:33:30;;;;;;;8.95;2.15;;;14.00;99.90;;;;;;5033161;28;20186;-65
2023/10/16 12:36:00;;;;;;;10.15;1.77;;;14.00;99.90;;;;;;5032474;28;20192;-62
2023/10/16 12:38:26;;;;;;;9.20;1.65;;;14.00;99.90;;;;;;5032542;28;20180;-62
2023/10/16 12:40:58;;;;;;;9.80;1.70;;;14.10;99.90;;;;;;5032323;28;20246;-63
2023/10/16 12:43:27;;;;;;;7.63;3.05;;;14.20;99.90;;;;;;5032219;28;20291;-62
2023/10/16 12:45:57;;;;;;;6.97;1.60;;;14.30;99.90;;;;;;5015176;28;20218;-63
2023/10/16 12:48:29;;;;;;;8.18;1.67;;;14.30;99.90;;;;;;5032659;28;20243;-62
2023/10/16 12:51:01;;;;;;;6.30;1.60;;;14.30;99.90;;;;;;5032912;28;20195;-61
2023/10/16 12:53:28;;;;;;;8.90;2.20;;;14.30;99.90;;;;;;5032880;28;20351;-62
2023/10/16 12:55:55;;;;;;;5.55;1.58;;;14.40;99.90;;;;;;5032690;28;20238;-63
2023/10/16 12:58:22;;;;;;;8.10;1.60;;;14.40;99.90;;;;;;5014930;28;20184;-64
2023/10/16 13:00:50;;;;;;;11.35;1.63;;;14.40;99.90;;;;;;5032489;28;20687;-62
2023/10/16 13:03:20;;;;;;;9.98;2.00;;;14.40;99.90;;;;;;5032513;28;20222;-64
2023/10/16 13:05:48;;;;;;;6.57;1.48;;;14.40;99.90;;;;;;5032732;28;20739;-64
2023/10/16 13:08:17;;;;;;;8.93;1.70;;;14.40;99.90;;;;;;5031606;28;20191;-62
2023/10/16 13:10:48;;;;;;;10.25;1.60;;;14.50;99.90;;;;;;5032042;28;20226;-66
2023/10/16 13:13:19;;;;;;;5.60;1.50;;;14.50;99.90;;;;;;5032405;28;20183;-65
2023/10/16 13:15:51;;;;;;;7.43;1.77;;;14.50;99.90;;;;;;5032817;28;20507;-63
2023/10/16 13:18:29;;;;;;;9.15;1.45;;;14.60;99.90;;;;;;5032522;28;20160;-64
2023/10/16 13:21:12;;;;;;;8.13;1.50;;;14.60;99.90;;;;;;5032608;28;20164;-66
2023/10/16 13:23:39;;;;;;;5.80;1.30;;;14.60;99.90;;;;;;5032446;28;20204;-65
2023/10/16 13:26:08;;;;;;;8.80;1.70;;;14.70;99.90;;;;;;5014548;28;20190;-66
2023/10/16 13:28:41;;;;;;;3.53;1.23;;;14.70;99.90;;;;;;5031637;28;20188;-64
2023/10/16 13:31:08;;;;;;;8.77;1.27;;;14.70;99.90;;;;;;5013977;28;20180;-64
2023/10/16 13:33:38;;;;;;;4.85;1.42;;;14.70;99.90;;;;;;5032135;28;20275;-65
2023/10/16 13:36:04;;;;;;;6.22;1.65;;;14.70;99.90;;;;;;5032072;28;20175;-64
2023/10/16 13:38:31;;;;;;;4.45;1.40;;;14.70;99.90;;;;;;5031662;28;20183;-64
2023/10/16 13:41:06;;;;;;;7.30;1.58;;;14.70;99.90;;;;;;5030831;28;20184;-64
2023/10/16 13:43:32;;;;;;;7.28;1.60;;;14.70;99.90;;;;;;5031939;28;20218;-64
2023/10/16 13:45:58;;;;;;;9.85;2.08;;;14.80;99.90;;;;;;5031762;28;20215;-64
2023/10/16 13:48:28;;;;;;;5.95;1.30;;;14.70;99.90;;;;;;5031815;28;20683;-64
2023/10/16 13:50:54;;;;;;;6.20;2.10;;;14.70;99.90;;;;;;5030109;28;20188;-64
2023/10/16 13:53:20;;;;;;;6.70;1.67;;;14.70;99.90;;;;;;5032963;28;20620;-64
2023/10/16 13:55:52;;;;;;;5.15;1.63;;;14.70;99.90;;;;;;5035273;28;20186;-63
2023/10/16 13:58:20;;;;;;;6.15;1.38;;;14.70;99.90;;;;;;5017764;28;20176;-65
2023/10/16 14:00:47;;;;;;;3.33;1.17;;;14.70;99.90;;;;;;5035061;28;20195;-65
2023/10/16 14:05:44;;;;;;;8.15;1.55;;;14.60;99.90;;;;;;5035862;28;20172;-63
2023/10/16 14:08:10;;;;;;;5.55;1.33;;;14.60;99.90;;;;;;5035622;28;20183;-64
2023/10/16 14:10:39;;;;;;;6.90;1.58;;;14.60;99.90;;;;;;5017558;28;20311;-65
2023/10/16 14:13:52;;;;;;;5.93;1.48;;;14.60;99.90;;;;;;5035728;28;20184;-64
2023/10/16 14:15:52;;;;;;;6.95;1.27;;;14.60;99.90;;;;;;5025216;28;20234;-64
2023/10/16 14:18:21;;;;;;;3.83;1.45;;;14.60;99.90;;;;;;5017755;28;20188;-63
2023/10/16 14:20:48;;;;;;;5.63;1.33;;;14.60;99.90;;;;;;5034783;28;20180;-64
2023/10/16 14:23:28;;;;;;;14.68;2.05;;;14.50;99.90;;;;;;5035036;28;20580;-63
2023/10/16 14:25:58;;;;;;;7.40;1.42;;;14.50;99.90;;;;;;5017221;28;20195;-64
2023/10/16 14:28:28;;;;;;;5.82;1.50;;;14.40;99.90;;;;;;5034382;28;20180;-62
2023/10/16 14:30:56;;;;;;;3.13;1.27;;;14.40;99.90;;;;;;5017339;28;20273;-63
2023/10/16 14:33:28;;;;;;;5.15;1.40;;;14.40;99.90;;;;;;5017455;28;20179;-64
2023/10/16 14:35:56;;;;;;;5.22;1.23;;;14.40;99.90;;;;;;5034914;28;20160;-63
2023/10/16 14:38:23;;;;;;;5.15;1.38;;;14.40;99.90;;;;;;5034662;28;20554;-64
2023/10/16 14:40:49;;;;;;;3.22;1.10;;;14.30;99.90;;;;;;5034510;28;20190;-63
2023/10/16 14:43:15;;;;;;;6.72;1.40;;;14.30;99.90;;;;;;5016844;28;20219;-64
2023/10/16 14:45:43;;;;;;;8.82;1.50;;;14.20;99.90;;;;;;5034517;28;20337;-64
2023/10/16 14:48:09;;;;;;;5.28;1.35;;;14.20;99.90;;;;;;5034946;28;20187;-65
2023/10/16 14:50:38;;;;;;;9.63;1.45;;;14.20;99.90;;;;;;5034529;28;20210;-62
2023/10/16 14:53:06;;;;;;;6.10;1.38;;;14.10;99.90;;;;;;5034223;28;20318;-63
2023/10/16 14:55:35;;;;;;;8.68;1.40;;;14.10;99.90;;;;;;5017004;28;20246;-64
2023/10/16 14:58:02;;;;;;;6.10;1.23;;;14.10;99.90;;;;;;5034462;28;20180;-64
2023/10/16 15:00:32;;;;;;;7.60;1.50;;;14.10;99.90;;;;;;5034029;28;20172;-63
2023/10/16 15:03:00;;;;;;;8.18;1.58;;;14.00;99.90;;;;;;5034802;28;20266;-64